Latest Weather Observations for Cape Moreton

IDQ60901

Issued at 7:31 am EST Tuesday 7 July 2020 (issued every 10 minutes, with the page automatically refreshed every 10 minutes)

About weather observations | Map of Brisbane area stations | Latest observations for Brisbane area | Other Formats
Station Details ID: 040043 Name: CAPE MORETON LIGHTHOUSE Lat: -27.03 Lon: 153.47 Height: 99.9 m
Data from the previous 72 hours. | See also: Recent months at Cape Moreton
Date/Time
EST
Temp
°C
App
Temp
°C
Dew
Point
°C
Rel
Hum
%
Delta-T
°C
Wind Press
QNH
hPa
Press
MSL
hPa
Rain since
9am
mm
Dir  Spd
km/h
Gust
km/h
Spd
kts
Gust
kts
07/07:30am 14.9 10.2 9.1 68 3.0 SSW 24 28 13 15 1026.0 1025.9 0.0
07/07:00am 15.0 10.4 9.8 71 2.7 S 24 32 13 17 1025.5 1025.4 0.0
07/06:30am 14.8 10.1 9.4 70 2.8 S 24 32 13 17 1025.3 1025.1 0.0
07/06:00am 14.4 9.4 9.4 72 2.6 SSW 26 32 14 17 1025.1 1024.9 0.0
07/05:30am 14.6 9.3 10.0 74 2.4 SSW 28 35 15 19 1024.9 1024.7 0.0
07/05:00am 14.7 10.3 10.5 76 2.2 SSW 24 32 13 17 1024.6 1024.4 0.0
07/04:30am 14.7 10.3 10.3 75 2.3 S 24 33 13 18 1024.5 1024.3 0.0
07/04:00am 14.4 9.9 10.0 75 2.3 SSW 24 32 13 17 1024.6 1024.4 0.0
07/03:30am 14.6 10.1 10.0 74 2.4 SSW 24 30 13 16 1024.7 1024.5 0.0
07/03:00am 14.9 10.9 10.3 74 2.4 SSW 22 26 12 14 1024.8 1024.6 0.0
07/02:30am 14.8 10.4 10.4 75 2.3 SSW 24 32 13 17 1025.0 1024.8 0.0
07/02:00am 14.8 10.5 10.6 76 2.2 SSW 24 30 13 16 1024.9 1024.7 0.0
07/01:30am 15.1 10.9 11.1 77 2.1 SSW 24 28 13 15 1025.0 1024.8 0.0
07/01:00am 15.4 11.7 11.6 78 2.0 S 22 26 12 14 1025.2 1025.0 0.0
07/12:30am 15.4 11.3 11.6 78 2.1 SSW 24 30 13 16 1025.6 1025.5 0.0
07/12:00am 16.0 12.2 12.4 79 2.0 SSW 24 32 13 17 1025.7 1025.6 0.0
 
Date/Time
EST
Temp
°C
App
Temp
°C
Dew
Point
°C
Rel
Hum
%
Delta-T
°C
Wind Press
QNH
hPa
Press
MSL
hPa
Rain since
9am
mm
Dir  Spd
km/h
Gust
km/h
Spd
kts
Gust
kts
06/11:30pm 16.2 12.9 12.7 80 1.9 SSW 22 28 12 15 1025.8 1025.7 0.0
06/11:00pm 16.9 13.2 11.6 71 2.9 S 22 33 12 18 1026.1 1026.0 0.0
06/10:30pm 16.3 12.7 11.7 74 2.5 SSW 22 33 12 18 1026.3 1026.2 0.0
06/10:00pm 16.6 12.9 11.5 72 2.8 SSW 22 28 12 15 1026.4 1026.3 0.0
06/09:30pm 16.7 13.0 8.1 57 4.4 SSW 17 20 9 11 1026.4 1026.3 0.0
06/09:00pm 17.1 13.5 8.5 57 4.4 S 17 22 9 12 1026.2 1026.1 0.0
06/08:30pm 17.1 13.9 8.5 57 4.4 SSW 15 20 8 11 1026.2 1026.1 0.0
06/08:00pm 17.4 14.3 8.8 57 4.4 S 15 20 8 11 1026.0 1025.9 0.0
06/07:30pm 17.1 14.0 8.8 58 4.3 S 15 22 8 12 1025.8 1025.7 0.0
06/07:00pm 17.6 13.8 9.0 57 4.5 SSE 19 26 10 14 1025.7 1025.6 0.0
06/06:30pm 17.8 13.8 8.9 56 4.6 SSE 20 24 11 13 1025.6 1025.5 0.0
06/06:00pm 17.6 13.3 9.2 58 4.4 SSE 22 28 12 15 1025.0 1024.8 0.0
06/05:30pm 17.5 13.7 9.9 61 4.0 SSE 20 26 11 14 1024.8 1024.6 0.0
06/05:00pm 17.6 13.5 10.0 61 4.0 S 22 30 12 16 1024.7 1024.5 0.0
06/04:30pm 17.8 13.4 10.4 62 4.0 S 24 32 13 17 1024.5 1024.3 0.0
06/04:00pm 17.9 13.4 10.0 60 4.2 S 24 33 13 18 1024.3 1024.1 0.0
06/03:30pm 17.9 13.4 10.0 60 4.2 SSE 24 33 13 18 1024.1 1023.9 0.0
06/03:00pm 18.0 13.5 9.9 59 4.3 SSE 24 35 13 19 1024.1 1023.9 0.0
06/02:30pm 18.0 14.0 10.4 61 4.1 SSE 22 32 12 17 1024.0 1023.8 0.0
06/02:00pm 18.0 12.4 10.1 60 4.2 SSE 30 39 16 21 1024.1 1023.9 0.0
06/01:30pm 18.3 13.2 10.7 61 4.1 SSE 28 43 15 23 1024.1 1023.9 0.0
06/01:00pm 18.2 13.5 10.8 62 4.0 S 26 33 14 18 1024.5 1024.3 0.0
06/12:30pm 18.2 14.2 10.6 61 4.1 S 22 33 12 18 1024.8 1024.6 0.0
06/12:00pm 18.0 13.7 10.6 62 4.0 S 24 33 13 18 1025.0 1024.8 0.0
06/11:30am 17.8 12.8 9.7 59 4.3 S 26 32 14 17 1025.3 1025.1 0.0
06/11:00am 17.9 13.2 10.5 62 4.0 S 26 37 14 20 1025.6 1025.5 0.0
06/10:30am 17.6 13.6 10.5 63 3.8 S 22 32 12 17 1025.5 1025.4 0.0
06/10:00am 16.7 12.2 9.9 64 3.6 S 24 35 13 19 1025.7 1025.6 0.0
06/09:30am 16.5 12.1 10.4 67 3.2 S 24 32 13 17 1025.6 1025.5 0.0
06/09:00am 15.8 11.3 10.1 69 3.0 S 24 35 13 19 1025.2 1025.0 0.0
06/08:30am 15.0 10.3 9.1 68 3.0 SSW 24 32 13 17 1025.0 1024.8 0.0
06/08:00am 14.9 10.6 9.3 69 2.9 SSW 22 32 12 17 1024.7 1024.5 0.0
06/07:30am 13.8 8.5 8.4 70 2.7 SSW 26 35 14 19 1024.2 1024.0 0.0
06/07:00am 13.2 7.3 7.6 69 2.7 SSW 28 32 15 17 1023.9 1023.7 0.0
06/06:30am 12.8 7.8 7.9 72 2.4 SSW 24 30 13 16 1023.7 1023.5 0.0
06/06:00am 12.5 8.0 8.4 76 2.0 SW 22 26 12 14 1023.4 1023.2 0.0
06/05:30am 12.6 8.0 8.3 75 2.1 SW 22 26 12 14 1023.1 1022.9 0.0
06/05:00am 12.7 7.7 8.0 73 2.3 SW 24 28 13 15 1022.6 1022.5 0.0
06/04:30am 12.6 7.4 7.3 70 2.6 SW 24 28 13 15 1022.4 1022.3 0.0
06/04:00am 12.8 7.5 7.0 68 2.8 SW 24 28 13 15 1022.3 1022.2 0.0
06/03:30am 13.5 8.8 7.7 68 2.9 SW 22 26 12 14 1022.3 1022.2 0.0
06/03:00am 13.5 8.8 7.7 68 2.9 SW 22 26 12 14 1022.6 1022.5 0.0
06/02:30am 13.4 9.0 7.4 67 2.9 SW 20 24 11 13 1022.6 1022.5 0.0
06/02:00am 13.3 8.9 7.5 68 2.8 SW 20 26 11 14 1022.6 1022.5 0.0
06/01:30am 13.5 9.0 7.1 65 3.1 SW 20 22 11 12 1022.7 1022.6 0.0
06/01:00am 13.5 9.2 7.1 65 3.1 SW 19 22 10 12 1022.9 1022.8 0.0
06/12:30am 13.5 9.6 8.8 73 2.4 WSW 19 20 10 11 1023.1 1022.9 0.0
06/12:00am 13.7 9.6 8.7 72 2.5 WSW 20 22 11 12 1023.1 1022.9 0.0
 
Date/Time
EST
Temp
°C
App
Temp
°C
Dew
Point
°C
Rel
Hum
%
Delta-T
°C
Wind Press
QNH
hPa
Press
MSL
hPa
Rain since
9am
mm
Dir  Spd
km/h
Gust
km/h
Spd
kts
Gust
kts
05/11:30pm 13.7 9.6 7.9 68 2.9 W 19 22 10 12 1023.3 1023.1 0.0
05/11:00pm 15.3 12.6 3.5 45 5.4 SSW 7 9 4 5 1023.5 1023.3 0.0
05/10:30pm 15.8 12.4 4.2 46 5.4 SSE 11 13 6 7 1023.5 1023.3 0.0
05/10:00pm 15.8 11.9 3.6 44 5.6 SSE 13 15 7 8 1023.3 1023.1 0.0
05/09:30pm 15.7 12.2 5.3 50 5.0 SE 13 15 7 8 1023.1 1022.9 0.0
05/09:00pm 15.6 11.5 4.6 48 5.2 SE 15 17 8 9 1022.7 1022.6 0.0
05/08:30pm 15.4 11.7 2.2 41 5.9 SSE 11 15 6 8 1022.7 1022.6 0.0
05/08:00pm 15.4 11.9 1.5 39 6.1 SE 9 9 5 5 1022.6 1022.5 0.0
05/07:30pm 15.0 11.8 0.8 38 6.1 SE 7 9 4 5 1022.2 1022.1 0.0
05/07:00pm 15.1 13.1 0.2 36 6.3 CALM 0 0 0 0 1022.1 1022.0 0.0
05/06:30pm 15.3 13.3 -0.4 34 6.6 CALM 0 0 0 0 1021.9 1021.8 0.0
05/06:00pm 14.9 11.8 0.0 36 6.3 SSE 6 6 3 3 1021.8 1021.7 0.0
05/05:30pm 15.4 12.2 0.8 37 6.3 SSE 7 11 4 6 1021.5 1021.4 0.0
05/05:00pm 15.4 12.3 1.5 39 6.1 SE 7 11 4 6 1021.1 1021.0 0.0
05/04:30pm 16.5 13.3 1.0 35 6.8 SSE 7 9 4 5 1021.0 1020.9 0.0
05/04:00pm 16.9 13.7 0.5 33 7.1 SSE 7 9 4 5 1020.6 1020.5 0.0
05/03:30pm 16.6 13.3 2.6 39 6.4 SSE 9 13 5 7 1020.6 1020.5 0.0
05/03:00pm 16.8 13.1 2.4 38 6.5 SSE 11 15 6 8 1020.4 1020.3 0.0
05/02:30pm 17.0 13.1 1.0 34 7.1 SSE 11 17 6 9 1020.4 1020.3 0.0
05/02:00pm 17.2 12.7 2.0 36 6.8 S 15 20 8 11 1020.3 1020.2 0.0
05/01:30pm 17.5 12.6 2.3 36 6.9 SSE 17 22 9 12 1020.1 1020.0 0.0
05/01:00pm 17.0 12.6 2.6 38 6.6 SSE 15 22 8 12 1020.3 1020.2 0.0
05/12:30pm 17.4 14.3 3.7 40 6.4 S 9 15 5 8 1020.9 1020.8 0.0
05/12:00pm 17.7 14.1 3.2 38 6.7 SSW 11 17 6 9 1021.4 1021.3 0.0
05/11:30am 17.7 15.1 5.9 46 5.8 SSW 9 20 5 11 1021.8 1021.7 0.0
05/11:00am 17.1 14.0 7.2 52 4.9 SSE 13 17 7 9 1022.2 1022.1 0.0
05/10:30am 16.7 14.1 5.9 49 5.3 S 9 13 5 7 1022.3 1022.2 0.0
05/10:00am 15.4 12.8 5.9 53 4.6 SSW 9 13 5 7 1022.6 1022.5 0.0
05/09:30am 13.8 10.5 6.4 61 3.6 WSW 13 19 7 10 1022.7 1022.6 0.0
05/09:00am 12.6 8.0 5.8 63 3.2 WSW 19 24 10 13 1022.5 1022.4 0.0
05/08:30am 12.0 7.4 5.6 65 3.0 W 19 24 10 13 1022.2 1022.1 0.0
05/08:00am 11.4 6.1 5.1 65 2.9 W 22 28 12 15 1021.9 1021.8 0.0
05/07:30am 10.8 5.8 4.7 66 2.8 W 20 26 11 14 1021.8 1021.7 0.0
05/07:00am 10.0 5.2 4.4 68 2.5 WSW 19 24 10 13 1021.4 1021.3 0.0
05/06:30am 9.8 4.8 4.4 69 2.4 WSW 20 26 11 14 1021.0 1020.9 0.0
05/06:00am 9.7 4.3 4.3 69 2.4 WSW 22 26 12 14 1020.7 1020.6 0.0
05/05:30am 9.9 4.9 4.5 69 2.4 WSW 20 26 11 14 1020.5 1020.4 0.0
05/05:00am 10.4 4.2 4.3 66 2.7 WSW 26 35 14 19 1020.1 1020.0 0.0
05/04:30am 10.5 3.9 4.4 66 2.7 WSW 28 39 15 21 1019.8 1019.7 0.0
05/04:00am 10.7 4.6 4.6 66 2.7 WSW 26 35 14 19 1019.7 1019.6 0.0
05/03:30am 10.7 4.9 4.4 65 2.8 WSW 24 30 13 16 1019.9 1019.8 0.0
05/03:00am 10.9 4.7 4.4 64 2.9 WSW 26 33 14 18 1020.2 1020.1 0.0
05/02:30am 11.0 4.9 4.7 65 2.9 WSW 26 32 14 17 1020.4 1020.3 0.0
05/02:00am 11.1 5.3 4.6 64 2.9 WSW 24 32 13 17 1020.6 1020.5 0.0
05/01:30am 11.6 5.7 3.9 59 3.5 WSW 24 33 13 18 1020.8 1020.7 0.0
05/01:00am 11.9 5.6 3.9 58 3.6 WSW 26 41 14 22 1020.9 1020.8 0.0
05/12:30am 12.1 5.9 4.3 59 3.5 WSW 26 35 14 19 1020.8 1020.7 0.0
05/12:00am 12.4 5.8 4.1 57 3.8 WSW 28 39 15 21 1020.6 1020.5 0.0
 
Date/Time
EST
Temp
°C
App
Temp
°C
Dew
Point
°C
Rel
Hum
%
Delta-T
°C
Wind Press
QNH
hPa
Press
MSL
hPa
Rain since
9am
mm
Dir  Spd
km/h
Gust
km/h
Spd
kts
Gust
kts
04/11:30pm 12.5 6.2 3.5 54 4.0 WSW 26 33 14 18 1020.9 1020.8 0.0
04/11:00pm 12.9 6.0 2.7 50 4.5 WSW 28 41 15 22 1020.9 1020.8 0.0
04/10:30pm 13.1 6.1 2.1 47 4.8 WSW 28 39 15 21 1020.8 1020.7 0.0
04/10:00pm 13.5 6.5 1.8 45 5.1 WSW 28 43 15 23 1020.6 1020.5 0.0
04/09:30pm 13.8 7.2 1.8 44 5.2 WSW 26 43 14 23 1020.5 1020.4 0.0
04/09:00pm 14.1 7.1 1.7 43 5.4 WSW 28 44 15 24 1020.3 1020.2 0.0
04/08:45pm 14.2 7.2 2.1 44 5.3 WSW 28 46 15 25 1020.4 1020.3 0.0
04/08:30pm 14.6 6.6 1.5 41 5.7 WSW 33 50 18 27 1020.0 1019.9 0.0
04/08:27pm 14.5 6.7 1.4 41 5.7 WSW 32 50 17 27 1019.9 1019.8 0.0
04/08:00pm 14.7 8.1 1.9 42 5.6 WSW 26 46 14 25 1020.1 1020.0 0.0
04/07:41pm 14.9 7.2 2.1 42 5.7 WSW 32 50 17 27 1019.4 1019.3 0.0
04/07:30pm 15.4 7.4 1.9 40 6.0 WSW 33 50 18 27 1019.3 1019.2 0.0
04/07:03pm 15.5 8.7 3.0 43 5.7 WSW 28 46 15 25 1019.4 1019.3 0.0
04/07:00pm 15.7 8.5 2.8 42 5.8 WSW 30 46 16 25 1019.2 1019.1 0.0
04/06:30pm 16.0 9.5 2.8 41 6.0 WSW 26 39 14 21 1019.0 1018.9 0.0
04/06:00pm 16.0 9.1 2.8 41 6.0 WSW 28 39 15 21 1018.5 1018.4 0.0
04/05:30pm 16.0 9.6 3.4 43 5.8 WSW 26 35 14 19 1018.2 1018.1 0.0
04/05:00pm 16.2 10.4 4.3 45 5.6 WSW 24 37 13 20 1018.0 1017.9 0.0
04/04:30pm 16.9 12.0 4.9 45 5.7 WSW 20 28 11 15 1017.7 1017.6 0.0
04/04:00pm 17.6 10.9 3.9 40 6.4 WSW 28 39 15 21 1017.5 1017.4 0.0
04/03:30pm 17.9 10.4 3.4 38 6.8 WSW 32 46 17 25 1017.1 1017.0 0.0
04/03:20pm 17.9 11.1 3.0 37 6.9 WSW 28 48 15 26 1017.1 1017.0 0.0
04/03:00pm 18.2 13.1 4.0 39 6.7 WSW 20 35 11 19 1017.4 1017.3 0.0
04/02:30pm 18.0 12.0 3.5 38 6.8 WSW 24 37 13 20 1017.6 1017.5 0.0
04/02:00pm 17.8 11.5 3.7 39 6.6 WSW 26 37 14 20 1017.8 1017.7 0.0
04/01:30pm 17.4 11.5 4.0 41 6.3 WSW 24 39 13 21 1017.9 1017.8 0.0
04/01:00pm 17.2 10.5 3.5 40 6.4 WSW 28 41 15 22 1018.1 1018.0 0.0
04/12:40pm 17.0 10.2 3.0 39 6.4 WSW 28 52 15 28 1018.1 1018.0 0.0
04/12:30pm 17.5 11.2 3.8 40 6.4 WSW 26 44 14 24 1018.4 1018.3 0.0
04/12:00pm 17.1 11.9 3.4 40 6.3 WSW 20 35 11 19 1019.2 1019.1 0.0
04/11:30am 16.4 10.2 4.1 44 5.8 WSW 26 41 14 22 1019.9 1019.8 0.0
04/11:00am 16.4 10.3 4.8 46 5.5 WSW 26 39 14 21 1020.2 1020.1 0.0
04/10:45am 15.5 7.7 2.7 42 5.8 WSW 33 54 18 29 1020.0 1019.9 0.0
04/10:30am 15.9 9.3 4.0 45 5.5 SW 28 44 15 24 1020.4 1020.3 0.0
04/10:00am 15.2 7.6 2.7 43 5.6 WSW 32 44 17 24 1020.6 1020.5 0.0
04/09:31am 15.3 8.7 4.4 48 5.1 SW 28 46 15 25 1020.8 1020.7 0.0
04/09:30am 15.2 8.1 3.7 46 5.3 SW 30 46 16 25 1020.8 1020.7 0.0
04/09:01am 14.9 8.1 3.1 45 5.3 WSW 28 46 15 25 1020.5 1020.4 0.0
04/09:00am 15.0 8.7 3.8 47 5.1 WSW 26 46 14 25 1020.5 1020.4 0.0
04/08:30am 14.4 8.2 4.4 51 4.6 WSW 26 35 14 19 1020.5 1020.4 0.0
04/08:00am 13.9 7.3 4.2 52 4.4 WSW 28 35 15 19 1020.4 1020.3 0.0

Latest Capital City Observations: Canberra | Sydney | Melbourne | Brisbane | Adelaide | Perth | Hobart | Darwin

Other formats

Comma delimited format used in spreadsheet applications
http://www.bom.gov.au/fwo/IDQ60901/IDQ60901.94594.axf

JavaScript Object Notation format (JSON) in row-major order
http://www.bom.gov.au/fwo/IDQ60901/IDQ60901.94594.json

Data quality

Most of these data are generated automatically and are frequently updated. Quality checks on data are not normally performed. It is possible for incorrect values to appear. Refer to information at About Latest Weather Observations and please check the disclaimer before using these data.